aviador You're here:

ZSHC Decoded Metar

HANGZHOU in CHINA
Report Time2017-07-21 02:30:00
UTC Time2017-07-21 02:53:45
Flight Rules vfr VFR
Wind260° at 6 kt
W.Decomp.*RWY 25: 5.8 kt HW 1.5 kt RCW
W.Rank260° ranks 18
Current wind is above 260° avg. (4.8)
Visibility9999 m
Phenomena:N/A
Clouds:N/A
Expected CloudBase > 4,800 ft AGL from Temp-Dew spread
CeilingNone
Temp37°C (ISA +22)
Dew Point25°C (50% RH)
Heat Index45.8°C
QNH1009 hPa
Density Alt3,209 ft
Elevation141 ft
Report Wrong Elevation
Raw Report
ZSHC 210230Z 26003MPS 220V280 CAVOK 37/25 Q1009 NOSIG=

Extra information for ZSHC:More info

Metar Taf Metar & Taf Last 4 Metars F.Rules Stats Wind Profile Meteogram Temp Stats Airport Information Weather charts Add Link Nearby VenuesMetar ALERT Operation Metar Decoded Social comments